createdAt,value
2022-09-01T00:03:00.243Z,97432.34
2022-09-01T00:08:02.241Z,97428.63
2022-09-01T00:13:06.955Z,97442.06
2022-09-01T00:18:08.794Z,97433.00
2022-09-01T00:23:10.983Z,97436.09
2022-09-01T00:28:13.061Z,97431.69
2022-09-01T00:33:14.847Z,97433.44
2022-09-01T00:38:16.596Z,97429.00
2022-09-01T00:43:36.539Z,97431.88
2022-09-01T00:48:39.162Z,97426.94
2022-09-01T00:53:43.807Z,97421.41
2022-09-01T00:58:45.565Z,97426.94
2022-09-01T01:03:47.290Z,97426.94
2022-09-01T01:08:57.078Z,97428.97
2022-09-01T01:14:05.823Z,97422.19
2022-09-01T01:19:38.352Z,97422.28
2022-09-01T01:24:42.485Z,97410.69
2022-09-01T01:29:44.569Z,97412.31
2022-09-01T01:34:48.747Z,97408.28
2022-09-01T01:39:51.794Z,97410.97
2022-09-01T01:44:54.614Z,97409.13
2022-09-01T01:49:57.413Z,97411.78
2022-09-01T01:55:03.270Z,97406.25
2022-09-01T02:00:07.849Z,97409.56
2022-09-01T02:05:13.871Z,97401.94
2022-09-01T02:10:16.296Z,97400.09
2022-09-01T02:15:20.310Z,97400.31
2022-09-01T02:20:24.868Z,97396.94
2022-09-01T02:25:27.485Z,97389.25
2022-09-01T02:30:32.911Z,97401.22
2022-09-01T02:35:37.979Z,97399.91
2022-09-01T02:40:44.906Z,97393.84
2022-09-01T02:45:55.616Z,97392.88
2022-09-01T02:51:01.989Z,97384.66
2022-09-01T02:56:09.459Z,97389.00
2022-09-01T03:01:25.161Z,97390.72
2022-09-01T03:06:29.041Z,97396.78
2022-09-01T03:11:33.315Z,97393.63
2022-09-01T03:16:36.282Z,97391.91
2022-09-01T03:21:41.079Z,97389.94
2022-09-01T03:26:45.019Z,97392.50
2022-09-01T03:31:51.717Z,97389.75
2022-09-01T03:36:54.361Z,97372.41
2022-09-01T03:42:03.285Z,97372.19
2022-09-01T03:47:05.158Z,97373.44
2022-09-01T03:52:08.956Z,97372.84
2022-09-01T03:57:11.819Z,97372.41
2022-09-01T04:02:15.838Z,97371.78
2022-09-01T04:07:19.135Z,97374.47
2022-09-01T04:12:21.446Z,97374.69
2022-09-01T04:17:45.439Z,97372.66
2022-09-01T04:22:49.599Z,97369.97
2022-09-01T04:27:55.299Z,97359.81
2022-09-01T04:32:58.508Z,97357.28
2022-09-01T04:38:00.559Z,97361.63
2022-09-01T04:43:02.285Z,97361.53
2022-09-01T04:48:05.402Z,97358.47
2022-09-01T04:53:11.910Z,97371.63
2022-09-01T04:58:18.716Z,97369.09
2022-09-01T05:03:23.974Z,97373.19
2022-09-01T05:08:35.516Z,97369.91
2022-09-01T05:13:41.399Z,97371.09
2022-09-01T05:18:47.468Z,97385.84
2022-09-01T05:23:51.619Z,97385.63
2022-09-01T05:28:56.271Z,97387.13
2022-09-01T05:33:58.477Z,97380.34
2022-09-01T05:39:02.066Z,97380.47
2022-09-01T05:44:08.023Z,97386.59
2022-09-01T05:49:13.918Z,97386.88
2022-09-01T05:54:23.119Z,97383.97
2022-09-01T05:59:27.643Z,97391.34
2022-09-01T06:04:47.114Z,97383.72
2022-09-01T06:09:55.757Z,97391.91
2022-09-01T06:14:58.720Z,97384.81
2022-09-01T06:20:00.866Z,97383.38
2022-09-01T06:25:06.621Z,97388.38
2022-09-01T06:30:23.908Z,97392.09
2022-09-01T06:35:44.947Z,97388.44
2022-09-01T06:40:47.380Z,97405.66
2022-09-01T06:45:54.472Z,97393.56
2022-09-01T06:51:20.876Z,97398.50
2022-09-01T06:56:32.215Z,97399.94
2022-09-01T07:13:25.441Z,97413.88
2022-09-01T07:30:42.830Z,97424.00
2022-09-01T07:36:24.976Z,97434.03
2022-09-01T07:46:36.773Z,97441.63
2022-09-01T07:51:40.164Z,97444.50
2022-09-01T07:56:43.172Z,97439.69
2022-09-01T08:01:47.294Z,97451.06
2022-09-01T08:06:49.700Z,97447.84
2022-09-01T08:12:01.693Z,97464.88
2022-09-01T08:22:26.837Z,97463.22
2022-09-01T08:27:38.898Z,97476.47
2022-09-01T08:32:42.188Z,97474.16
2022-09-01T08:37:45.298Z,97473.97
2022-09-01T08:43:01.550Z,97471.13
2022-09-01T08:49:09.900Z,97475.00
2022-09-01T08:53:49.866Z,97471.72
2022-09-01T08:58:54.187Z,97475.38
2022-09-01T09:04:59.768Z,97482.56
2022-09-01T09:10:17.082Z,97483.19
2022-09-01T09:15:48.125Z,97476.09
2022-09-01T09:20:51.529Z,97485.75
2022-09-01T09:25:55.052Z,97487.38
2022-09-01T09:31:35.745Z,97481.66
2022-09-01T09:36:38.355Z,97478.00
2022-09-01T09:41:41.415Z,97472.41
2022-09-01T09:46:47.466Z,97479.97
2022-09-01T09:51:58.771Z,97473.38
2022-09-01T09:57:11.643Z,97467.38
2022-09-01T10:02:23.165Z,97460.94
2022-09-01T10:07:34.371Z,97461.41
2022-09-01T10:12:37.170Z,97459.78
2022-09-01T10:17:43.640Z,97449.78
2022-09-01T10:22:48.595Z,97450.88
2022-09-01T10:27:59.178Z,97456.13
2022-09-01T10:33:08.011Z,97465.97
2022-09-01T10:38:21.519Z,97458.13
2022-09-01T10:43:41.506Z,97460.09
2022-09-01T10:48:48.796Z,97454.94
2022-09-01T10:54:02.287Z,97450.53
2022-09-01T10:59:32.762Z,97443.88
2022-09-01T11:04:37.775Z,97445.34
2022-09-01T11:09:45.057Z,97441.28
2022-09-01T11:15:26.755Z,97441.47
2022-09-01T11:20:36.102Z,97444.75
2022-09-01T11:25:45.862Z,97439.00
2022-09-01T11:30:58.183Z,97444.88
2022-09-01T11:36:28.669Z,97437.97
2022-09-01T11:41:39.533Z,97435.81
2022-09-01T11:46:45.822Z,97434.53
2022-09-01T11:51:48.279Z,97427.19
2022-09-01T11:56:50.079Z,97434.09
2022-09-01T12:01:57.929Z,97425.94
2022-09-01T12:07:10.621Z,97432.31
2022-09-01T12:12:34.677Z,97428.56
2022-09-01T12:17:36.789Z,97418.75
2022-09-01T12:22:42.854Z,97411.88
2022-09-01T12:27:44.557Z,97421.03
2022-09-01T12:32:47.011Z,97414.19
2022-09-01T12:37:48.979Z,97410.69
2022-09-01T12:42:52.317Z,97409.50
2022-09-01T12:47:54.419Z,97406.91
2022-09-01T12:53:02.009Z,97409.47
2022-09-01T12:58:07.492Z,97409.06
2022-09-01T13:03:15.106Z,97415.66
2022-09-01T13:08:19.462Z,97402.06
2022-09-01T13:13:24.219Z,97405.84
2022-09-01T13:18:26.706Z,97410.88
2022-09-01T13:23:28.524Z,97402.84
2022-09-01T13:28:31.965Z,97395.72
2022-09-01T13:34:09.238Z,97391.78
2022-09-01T13:38:57.421Z,97387.47
2022-09-01T13:43:59.439Z,97386.69
2022-09-01T13:49:03.013Z,97386.13
2022-09-01T13:54:05.123Z,97372.66
2022-09-01T13:59:07.999Z,97365.44
2022-09-01T14:04:10.373Z,97364.84
2022-09-01T14:09:17.571Z,97372.28
2022-09-01T14:14:19.894Z,97368.78
2022-09-01T14:19:22.143Z,97360.72
2022-09-01T14:24:23.865Z,97352.00
2022-09-01T14:29:25.775Z,97349.38
2022-09-01T14:34:27.654Z,97346.34
2022-09-01T14:39:30.741Z,97336.94
2022-09-01T14:44:34.484Z,97330.72
2022-09-01T14:49:37.006Z,97322.63
2022-09-01T14:54:39.698Z,97321.59
2022-09-01T14:59:42.216Z,97322.78
2022-09-01T15:04:43.881Z,97330.00
2022-09-01T15:09:45.638Z,97330.94
2022-09-01T15:14:47.320Z,97335.31
2022-09-01T15:19:49.322Z,97336.53
2022-09-01T15:24:50.946Z,97336.88
2022-09-01T15:29:52.639Z,97338.88
2022-09-01T15:34:56.210Z,97327.50
2022-09-01T15:39:58.123Z,97334.84
2022-09-01T15:44:59.822Z,97331.81
2022-09-01T15:50:05.802Z,97329.16
2022-09-01T15:55:08.965Z,97329.81
2022-09-01T16:00:11.542Z,97333.75
2022-09-01T16:05:14.414Z,97321.25
2022-09-01T16:10:16.123Z,97325.59
2022-09-01T16:15:22.163Z,97316.13
2022-09-01T16:20:30.396Z,97312.13
2022-09-01T16:25:34.776Z,97317.44
2022-09-01T16:30:36.827Z,97313.38
2022-09-01T16:35:47.902Z,97320.06
2022-09-01T16:41:28.033Z,97325.44
2022-09-01T16:46:47.803Z,97320.91
2022-09-01T16:52:00.113Z,97320.75
2022-09-01T16:57:27.706Z,97315.53
2022-09-01T17:02:38.174Z,97321.13
2022-09-01T17:07:49.397Z,97318.69
2022-09-01T17:12:56.237Z,97317.34
2022-09-01T17:18:06.136Z,97327.06
2022-09-01T17:23:15.530Z,97328.03
2022-09-01T17:28:33.442Z,97331.19
2022-09-01T17:33:50.365Z,97334.97
2022-09-01T17:39:15.954Z,97330.72
2022-09-01T17:44:35.488Z,97340.47
2022-09-01T17:49:54.082Z,97343.00
2022-09-01T17:55:10.758Z,97347.03
2022-09-01T18:00:26.274Z,97342.25
2022-09-01T18:05:34.021Z,97342.06
2022-09-01T18:10:40.706Z,97346.13
2022-09-01T18:15:53.101Z,97355.72
2022-09-01T18:21:04.829Z,97367.25
2022-09-01T18:26:32.443Z,97368.13
2022-09-01T18:31:34.884Z,97373.03
2022-09-01T18:37:21.266Z,97369.84
2022-09-01T18:42:52.557Z,97372.41
2022-09-01T18:48:17.146Z,97381.28
2022-09-01T18:53:34.100Z,97375.56
2022-09-01T18:59:04.085Z,97377.63
2022-09-01T19:04:16.556Z,97371.28
2022-09-01T19:09:30.681Z,97373.31
2022-09-01T19:15:03.932Z,97373.56
2022-09-01T19:20:12.473Z,97379.03
2022-09-01T19:25:36.070Z,97384.94
2022-09-01T19:30:48.092Z,97384.25
2022-09-01T19:35:54.519Z,97382.75
2022-09-01T19:41:12.865Z,97379.16
2022-09-01T19:46:37.844Z,97372.63
2022-09-01T19:51:56.957Z,97367.34
2022-09-01T19:57:08.215Z,97368.00
2022-09-01T20:02:21.103Z,97369.22
2022-09-01T20:07:22.898Z,97377.44
2022-09-01T20:12:53.719Z,97372.06
2022-09-01T20:18:02.359Z,97364.19
2022-09-01T20:23:14.571Z,97372.06
2022-09-01T20:28:45.339Z,97374.44
2022-09-01T20:33:54.923Z,97373.53
2022-09-01T20:39:33.391Z,97364.81
2022-09-01T20:44:48.121Z,97365.84
2022-09-01T20:49:49.914Z,97374.50
2022-09-01T20:55:04.616Z,97372.25
2022-09-01T21:00:16.975Z,97372.25
2022-09-01T21:05:26.702Z,97375.41
2022-09-01T21:10:41.466Z,97376.53
2022-09-01T21:15:52.686Z,97377.78
2022-09-01T21:21:04.103Z,97380.22
2022-09-01T21:26:06.172Z,97372.69
2022-09-01T21:31:08.789Z,97380.94
2022-09-01T21:36:10.524Z,97374.09
2022-09-01T21:41:13.452Z,97367.16
2022-09-01T21:46:16.406Z,97357.19
2022-09-01T21:51:18.343Z,97355.41
2022-09-01T21:56:20.031Z,97356.22
2022-09-01T22:01:31.241Z,97363.47
2022-09-01T22:06:34.047Z,97359.94
2022-09-01T22:11:36.795Z,97351.25
2022-09-01T22:16:39.120Z,97346.50
2022-09-01T22:21:41.949Z,97342.16
2022-09-01T22:26:43.809Z,97333.28
2022-09-01T22:31:45.715Z,97333.84
2022-09-01T22:36:49.104Z,97338.75
2022-09-01T22:41:51.021Z,97342.03
2022-09-01T22:46:52.781Z,97340.56
2022-09-01T22:51:54.694Z,97348.00
2022-09-01T22:56:58.667Z,97340.31
2022-09-01T23:02:01.848Z,97335.88
2022-09-01T23:07:05.271Z,97339.94
2022-09-01T23:12:07.165Z,97338.38
2022-09-01T23:17:09.096Z,97334.84
2022-09-01T23:22:10.835Z,97333.03
2022-09-01T23:27:12.579Z,97336.28
2022-09-01T23:32:14.368Z,97328.69
2022-09-01T23:37:16.857Z,97322.13
2022-09-01T23:42:19.462Z,97326.50
2022-09-01T23:47:21.090Z,97327.13
2022-09-01T23:52:22.775Z,97320.94
2022-09-01T23:57:24.653Z,97322.94
